Time;durP1;ratioP1;P1;durP2;ratioP2;P2;SDS_P1;SDS_P2;PMS_P1;PMS_P2;Temp;Humidity;BMP_temperature;BMP_pressure;BME280_temperature;BME280_humidity;BME280_pressure;Samples;Min_cycle;Max_cycle;Signal;HPM_P1;HPM_P2
2023/06/20 00:00:06;;;;;;;13.65;8.85;;;24.20;67.70;;;;;;5132079;27;20026;-72
2023/06/20 00:02:32;;;;;;;13.32;10.02;;;24.10;68.40;;;;;;5134006;27;20035;-72
2023/06/20 00:05:00;;;;;;;12.55;8.93;;;24.00;68.00;;;;;;5115171;27;20023;-72
2023/06/20 00:07:26;;;;;;;12.02;9.75;;;24.10;68.60;;;;;;5134228;27;20371;-72
2023/06/20 00:09:51;;;;;;;13.35;9.95;;;24.00;68.50;;;;;;5135286;27;20023;-72
2023/06/20 00:12:17;;;;;;;11.15;9.82;;;24.00;68.80;;;;;;5118270;27;20053;-72
2023/06/20 00:14:42;;;;;;;13.88;10.93;;;24.00;68.80;;;;;;5137803;27;20031;-72
2023/06/20 00:17:08;;;;;;;12.95;9.48;;;24.00;69.20;;;;;;5133235;27;20031;-72
2023/06/20 00:19:34;;;;;;;15.77;11.18;;;23.90;69.60;;;;;;5133429;27;20031;-72
2023/06/20 00:22:02;;;;;;;11.88;10.02;;;23.80;69.70;;;;;;5132949;27;20023;-72
2023/06/20 00:24:31;;;;;;;13.65;10.05;;;23.80;70.20;;;;;;5133660;27;20139;-72
2023/06/20 00:26:56;;;;;;;12.02;10.38;;;23.80;70.10;;;;;;5133359;27;20536;-72
2023/06/20 00:29:22;;;;;;;10.75;9.45;;;23.80;70.10;;;;;;5133420;27;20031;-72
2023/06/20 00:31:48;;;;;;;15.15;10.95;;;23.80;70.50;;;;;;5133490;27;20027;-72
2023/06/20 00:34:15;;;;;;;16.40;11.40;;;23.80;70.60;;;;;;5132951;27;20072;-72
2023/06/20 00:36:41;;;;;;;15.07;11.02;;;23.70;70.80;;;;;;5133585;27;20023;-72
2023/06/20 00:39:07;;;;;;;18.27;11.02;;;23.70;71.10;;;;;;5132968;27;20032;-72
2023/06/20 00:41:33;;;;;;;12.68;10.40;;;23.70;71.20;;;;;;5133572;27;20023;-72
2023/06/20 00:44:03;;;;;;;13.63;11.07;;;23.70;71.40;;;;;;5114906;27;20495;-72
2023/06/20 00:46:31;;;;;;;11.95;10.35;;;23.60;71.40;;;;;;5133303;27;20051;-72
2023/06/20 00:48:57;;;;;;;14.32;11.55;;;23.60;71.70;;;;;;5133096;28;20059;-71
2023/06/20 00:51:25;;;;;;;13.35;11.88;;;23.60;72.10;;;;;;5132807;28;20045;-72
2023/06/20 00:53:51;;;;;;;13.52;11.50;;;23.50;72.20;;;;;;5131888;28;20027;-71
2023/06/20 00:56:16;;;;;;;15.02;11.25;;;23.50;72.40;;;;;;5132410;28;20034;-72
2023/06/20 00:58:42;;;;;;;17.10;11.45;;;23.50;72.60;;;;;;5133372;28;20106;-71
2023/06/20 01:01:07;;;;;;;13.00;11.45;;;23.50;72.50;;;;;;5114208;28;20023;-72
2023/06/20 01:03:37;;;;;;;12.73;11.20;;;23.50;73.10;;;;;;5132916;28;20031;-71
2023/06/20 01:06:14;;;;;;;14.43;12.52;;;23.40;73.20;;;;;;5132649;28;20033;-72
2023/06/20 01:09:00;;;;;;;12.40;10.38;;;23.40;73.20;;;;;;5133237;27;20024;-72
2023/06/20 01:11:51;;;;;;;14.02;11.20;;;23.40;73.50;;;;;;5136017;27;20106;-72
2023/06/20 01:14:32;;;;;;;13.45;10.88;;;23.30;73.70;;;;;;5137109;27;20027;-72
2023/06/20 01:16:59;;;;;;;14.85;12.20;;;23.30;73.90;;;;;;5137316;27;20033;-72
2023/06/20 01:19:43;;;;;;;14.05;11.27;;;23.30;74.10;;;;;;5136400;27;20420;-72
2023/06/20 01:22:15;;;;;;;13.10;11.00;;;23.30;74.00;;;;;;5136725;27;20027;-72
2023/06/20 01:25:01;;;;;;;17.70;10.82;;;23.30;73.80;;;;;;5136817;27;20028;-72
2023/06/20 01:27:59;;;;;;;12.73;10.38;;;23.20;73.80;;;;;;5136714;27;20027;-72
2023/06/20 01:30:31;;;;;;;14.35;10.65;;;23.30;73.80;;;;;;5130711;27;20485;-72
2023/06/20 01:33:02;;;;;;;13.77;10.70;;;23.30;74.10;;;;;;5136980;27;20564;-71
2023/06/20 01:35:29;;;;;;;;;;;23.30;74.70;;;;;;5137032;27;20102;-72
2023/06/20 01:37:58;;;;;;;12.63;11.15;;;23.30;74.80;;;;;;5136930;27;19908;-72
2023/06/20 01:40:26;;;;;;;13.32;11.35;;;23.30;74.50;;;;;;5136139;27;20027;-72
2023/06/20 01:42:57;;;;;;;12.10;10.52;;;23.30;74.70;;;;;;5136476;27;20368;-72
2023/06/20 01:45:23;;;;;;;11.75;10.55;;;23.20;74.40;;;;;;5135641;27;20055;-72
2023/06/20 01:47:51;;;;;;;13.73;10.10;;;23.20;74.50;;;;;;5118882;27;20032;-71
2023/06/20 01:50:18;;;;;;;11.25;10.00;;;23.20;74.20;;;;;;5080565;28;20027;-71
2023/06/20 01:52:48;;;;;;;12.23;10.10;;;23.20;73.70;;;;;;5115946;28;20103;-72
2023/06/20 01:55:15;;;;;;;12.77;9.68;;;23.20;73.80;;;;;;5115325;28;20032;-72
2023/06/20 01:57:42;;;;;;;13.73;9.55;;;23.20;73.50;;;;;;5115554;28;20030;-72
2023/06/20 02:00:10;;;;;;;12.07;9.15;;;23.20;73.40;;;;;;5115319;28;20035;-72
2023/06/20 02:02:36;;;;;;;13.13;9.38;;;23.20;72.80;;;;;;5116034;27;20027;-72
2023/06/20 02:05:02;;;;;;;11.70;10.15;;;23.20;72.80;;;;;;5117790;27;20035;-71
2023/06/20 02:07:30;;;;;;;11.52;9.82;;;23.30;73.30;;;;;;5114846;28;20448;-72
2023/06/20 02:09:58;;;;;;;15.57;9.80;;;23.30;73.10;;;;;;5115323;28;20031;-72
2023/06/20 02:12:25;;;;;;;14.48;10.30;;;23.30;73.80;;;;;;5115059;28;20031;-72
2023/06/20 02:14:52;;;;;;;15.05;10.70;;;23.20;73.80;;;;;;5115449;28;20055;-72
2023/06/20 02:17:19;;;;;;;13.65;11.48;;;23.20;73.90;;;;;;5115166;28;20035;-72
2023/06/20 02:19:44;;;;;;;13.20;11.32;;;23.20;74.20;;;;;;5115156;28;20464;-72
2023/06/20 02:22:14;;;;;;;13.93;11.40;;;23.20;74.80;;;;;;5114114;28;20072;-72
2023/06/20 02:24:43;;;;;;;13.50;11.43;;;23.10;75.00;;;;;;5097058;28;20384;-72
2023/06/20 02:27:13;;;;;;;13.38;11.98;;;23.10;75.20;;;;;;5096513;28;20027;-72
2023/06/20 02:29:40;;;;;;;15.68;12.63;;;23.10;75.10;;;;;;5115284;28;20038;-72
2023/06/20 02:32:07;;;;;;;15.50;11.57;;;23.00;75.70;;;;;;5115158;28;20024;-72
2023/06/20 02:34:34;;;;;;;14.27;12.02;;;23.00;75.60;;;;;;5114555;28;20084;-72
2023/06/20 02:37:02;;;;;;;13.82;11.50;;;23.00;75.80;;;;;;5115104;28;20035;-72
2023/06/20 02:39:28;;;;;;;16.90;12.68;;;23.00;75.60;;;;;;5114184;28;20027;-72
2023/06/20 02:41:53;;;;;;;13.07;11.68;;;23.00;75.80;;;;;;5114771;28;20073;-72
2023/06/20 02:44:19;;;;;;;13.02;11.55;;;23.00;75.90;;;;;;5114369;28;20019;-71
2023/06/20 02:46:54;;;;;;;14.32;11.90;;;22.90;75.80;;;;;;5114788;28;20048;-72
2023/06/20 02:49:27;;;;;;;15.30;11.80;;;22.90;75.70;;;;;;5114402;28;20039;-72
2023/06/20 02:52:21;;;;;;;12.07;10.35;;;22.90;75.70;;;;;;5126668;27;20395;-72
2023/06/20 02:54:51;;;;;;;18.10;11.70;;;22.90;75.90;;;;;;5135341;27;20031;-72
2023/06/20 02:57:20;;;;;;;13.20;11.87;;;22.90;75.70;;;;;;5134506;27;20027;-72
2023/06/20 02:59:50;;;;;;;12.50;11.13;;;22.90;76.00;;;;;;5135252;27;20027;-72
2023/06/20 03:02:18;;;;;;;15.10;12.77;;;22.80;76.10;;;;;;5134647;27;20055;-72
2023/06/20 03:04:47;;;;;;;13.10;11.80;;;22.80;76.10;;;;;;5135081;27;20035;-72
2023/06/20 03:07:14;;;;;;;16.17;12.20;;;22.80;76.30;;;;;;5116068;27;20030;-72
2023/06/20 03:09:41;;;;;;;15.75;11.88;;;22.80;76.30;;;;;;5116290;27;20056;-71
2023/06/20 03:12:07;;;;;;;13.02;11.60;;;22.80;76.20;;;;;;5134927;27;20028;-72
2023/06/20 03:14:33;;;;;;;10.77;9.52;;;22.80;76.20;;;;;;5134435;27;20443;-72
2023/06/20 03:16:59;;;;;;;15.00;10.80;;;22.80;76.10;;;;;;5134476;27;20118;-72
2023/06/20 03:19:25;;;;;;;11.85;10.45;;;22.80;75.90;;;;;;5134306;27;20110;-72
2023/06/20 03:21:51;;;;;;;12.73;10.02;;;22.80;76.10;;;;;;5134548;27;20106;-72
2023/06/20 03:24:16;;;;;;;13.75;10.88;;;22.80;76.20;;;;;;5134215;27;20026;-72
2023/06/20 03:26:42;;;;;;;13.77;11.43;;;22.80;76.50;;;;;;5134630;27;20030;-72
2023/06/20 03:29:08;;;;;;;11.68;10.48;;;22.80;77.00;;;;;;5134622;27;20439;-71
2023/06/20 03:31:34;;;;;;;14.13;11.93;;;22.70;77.70;;;;;;5134011;27;20028;-72
2023/06/20 03:33:59;;;;;;;13.63;12.05;;;22.80;78.40;;;;;;5133464;27;20099;-72
2023/06/20 03:36:25;;;;;;;18.20;11.50;;;22.70;78.80;;;;;;5115369;27;20501;-72
2023/06/20 03:38:51;;;;;;;18.35;11.43;;;22.70;79.10;;;;;;5134564;27;20046;-71
2023/06/20 03:41:16;;;;;;;14.70;12.32;;;22.80;78.90;;;;;;5134022;27;20104;-72
2023/06/20 03:43:42;;;;;;;14.98;11.40;;;22.70;78.90;;;;;;5115957;27;20029;-72
2023/06/20 03:46:07;;;;;;;16.05;11.85;;;22.70;79.30;;;;;;5133499;27;20051;-71
2023/06/20 03:48:33;;;;;;;13.68;12.20;;;22.70;79.50;;;;;;5115282;27;20674;-71
2023/06/20 03:50:59;;;;;;;14.13;12.45;;;22.70;79.60;;;;;;5095345;28;20031;-72
2023/06/20 03:53:24;;;;;;;15.63;11.93;;;22.80;79.80;;;;;;5113158;28;20051;-72
2023/06/20 03:55:50;;;;;;;13.90;12.27;;;22.80;79.90;;;;;;5113526;28;20032;-72
2023/06/20 03:58:15;;;;;;;15.65;12.05;;;22.80;79.40;;;;;;5113137;28;20349;-72
2023/06/20 04:00:41;;;;;;;18.25;11.85;;;22.90;80.10;;;;;;5113496;28;20027;-72
2023/06/20 04:03:07;;;;;;;15.15;12.27;;;23.00;80.00;;;;;;5113454;28;20023;-72
2023/06/20 04:05:33;;;;;;;13.50;12.02;;;23.00;79.60;;;;;;5094649;28;20092;-72
2023/06/20 04:08:00;;;;;;;15.20;12.70;;;23.00;79.10;;;;;;5118389;27;20410;-72
2023/06/20 04:10:27;;;;;;;12.88;11.38;;;23.00;78.50;;;;;;5133409;27;20038;-72
2023/06/20 04:12:52;;;;;;;14.05;11.95;;;23.10;78.20;;;;;;5134122;27;20083;-72
2023/06/20 04:15:18;;;;;;;15.13;11.32;;;23.20;77.30;;;;;;5133323;27;20412;-72
2023/06/20 04:17:45;;;;;;;13.10;10.88;;;23.20;76.90;;;;;;5133735;27;20038;-72
2023/06/20 04:20:13;;;;;;;14.55;11.77;;;23.30;76.60;;;;;;5133842;27;20027;-72
2023/06/20 04:22:44;;;;;;;15.63;11.43;;;23.40;76.70;;;;;;5133216;27;20026;-72
2023/06/20 04:25:12;;;;;;;16.48;10.90;;;23.40;76.00;;;;;;5124834;27;20043;-72
2023/06/20 04:27:38;;;;;;;16.75;11.35;;;23.40;76.40;;;;;;5120719;27;20019;-72
2023/06/20 04:30:05;;;;;;;13.77;9.93;;;23.40;76.70;;;;;;5113085;28;20110;-72
2023/06/20 04:32:31;;;;;;;13.85;11.80;;;23.50;76.30;;;;;;5112381;28;20035;-72
2023/06/20 04:34:57;;;;;;;15.57;11.63;;;23.50;76.40;;;;;;5112714;28;20028;-71
2023/06/20 04:37:22;;;;;;;17.23;12.55;;;23.50;75.60;;;;;;5115714;27;20076;-73
2023/06/20 04:39:48;;;;;;;13.75;11.25;;;23.60;76.70;;;;;;5117259;27;20031;-73
2023/06/20 04:42:13;;;;;;;14.68;11.45;;;23.70;77.00;;;;;;5130471;27;20096;-73
2023/06/20 04:44:39;;;;;;;15.23;11.55;;;23.80;75.70;;;;;;5129684;27;20114;-72
2023/06/20 04:47:05;;;;;;;12.80;11.32;;;24.00;75.40;;;;;;5112381;28;20130;-73
2023/06/20 04:49:30;;;;;;;14.18;9.98;;;24.30;74.60;;;;;;5093795;28;20023;-72
2023/06/20 04:51:59;;;;;;;18.05;10.35;;;24.50;72.70;;;;;;5112294;28;20407;-72
2023/06/20 04:54:25;;;;;;;10.45;9.45;;;24.80;71.30;;;;;;5124757;28;20034;-72
2023/06/20 04:56:50;;;;;;;14.35;9.10;;;25.10;70.80;;;;;;5113567;28;20110;-73
2023/06/20 04:59:16;;;;;;;16.83;9.23;;;25.50;69.10;;;;;;5113543;28;20111;-72
2023/06/20 05:01:42;;;;;;;9.98;8.88;;;25.90;67.60;;;;;;5111947;28;20111;-72
2023/06/20 05:04:08;;;;;;;11.38;8.73;;;26.40;65.90;;;;;;5112123;28;20024;-72
2023/06/20 05:06:33;;;;;;;10.63;7.85;;;27.00;64.00;;;;;;5111947;28;20031;-73
2023/06/20 05:08:59;;;;;;;9.43;8.43;;;27.20;62.90;;;;;;5112519;28;20020;-72
2023/06/20 05:11:26;;;;;;;12.63;9.10;;;27.60;62.60;;;;;;5112099;28;20387;-73
2023/06/20 05:13:51;;;;;;;13.32;8.38;;;27.90;60.80;;;;;;5112042;28;20495;-72
2023/06/20 05:16:17;;;;;;;9.57;7.85;;;28.00;59.80;;;;;;5111614;28;20032;-73
2023/06/20 05:18:44;;;;;;;9.82;7.97;;;28.00;60.00;;;;;;5111927;28;20106;-72
2023/06/20 05:21:10;;;;;;;10.10;8.43;;;28.00;59.50;;;;;;5112259;28;20380;-72
2023/06/20 05:23:35;;;;;;;13.18;8.00;;;28.10;59.00;;;;;;5112094;28;20030;-73
2023/06/20 05:26:02;;;;;;;13.85;8.82;;;28.10;58.30;;;;;;5093946;28;20126;-73
2023/06/20 05:28:27;;;;;;;11.45;8.63;;;28.40;58.20;;;;;;5111971;28;20024;-73
2023/06/20 05:30:53;;;;;;;12.00;8.88;;;28.60;57.50;;;;;;5112375;28;20478;-72
2023/06/20 05:33:18;;;;;;;9.95;8.95;;;28.80;56.70;;;;;;5112473;28;20023;-73
2023/06/20 05:35:44;;;;;;;12.48;9.45;;;28.90;56.50;;;;;;5093741;28;20024;-73
2023/06/20 05:38:11;;;;;;;14.60;9.10;;;29.00;56.90;;;;;;5112359;28;20110;-73
2023/06/20 05:40:37;;;;;;;11.98;8.82;;;29.00;57.00;;;;;;5112107;28;20016;-72
2023/06/20 05:43:02;;;;;;;12.60;8.95;;;29.00;57.70;;;;;;5112489;28;20055;-72
2023/06/20 05:45:28;;;;;;;10.93;8.07;;;29.00;57.50;;;;;;5123390;28;20086;-73
2023/06/20 05:47:53;;;;;;;13.50;8.35;;;29.10;56.20;;;;;;5129261;28;20076;-72
2023/06/20 05:50:20;;;;;;;9.65;7.97;;;29.20;55.80;;;;;;5132747;28;20024;-73
2023/06/20 05:52:45;;;;;;;9.63;8.55;;;29.50;55.50;;;;;;5114116;28;20015;-73
2023/06/20 05:55:11;;;;;;;9.55;8.02;;;29.80;54.60;;;;;;5132819;27;20085;-73
2023/06/20 05:57:37;;;;;;;10.30;7.60;;;29.90;54.60;;;;;;5116650;27;20089;-73
2023/06/20 06:00:12;;;;;;;8.77;7.85;;;30.10;54.10;;;;;;5136347;27;20064;-73
2023/06/20 06:02:37;;;;;;;11.05;7.97;;;30.40;54.50;;;;;;5135984;27;20027;-73
2023/06/20 06:05:03;;;;;;;10.98;7.50;;;30.70;53.40;;;;;;5136505;27;20023;-72
2023/06/20 06:07:30;;;;;;;9.63;7.63;;;31.10;52.70;;;;;;5136260;27;20490;-73
2023/06/20 06:09:55;;;;;;;9.52;7.47;;;31.60;52.20;;;;;;5136191;27;20027;-73
2023/06/20 06:12:21;;;;;;;12.23;7.70;;;32.00;51.20;;;;;;5136457;27;20027;-72
2023/06/20 06:14:47;;;;;;;9.07;7.38;;;32.50;49.20;;;;;;5135729;27;20107;-74
2023/06/20 06:17:13;;;;;;;11.27;7.40;;;32.80;48.30;;;;;;5132785;27;20050;-73
2023/06/20 06:19:39;;;;;;;11.48;7.38;;;33.20;47.50;;;;;;5135537;27;20486;-73
2023/06/20 06:22:05;;;;;;;11.13;6.95;;;33.60;46.80;;;;;;5135660;27;20511;-73
2023/06/20 06:24:30;;;;;;;10.13;6.78;;;33.90;45.80;;;;;;5117182;27;20369;-73
2023/06/20 06:26:56;;;;;;;7.18;6.40;;;34.20;44.80;;;;;;5136140;27;20023;-73
2023/06/20 06:29:21;;;;;;;7.88;7.00;;;34.40;44.80;;;;;;5117550;27;20066;-73
2023/06/20 06:31:47;;;;;;;7.72;6.57;;;34.70;43.80;;;;;;5135356;27;20020;-73
2023/06/20 06:34:16;;;;;;;8.82;6.72;;;34.80;43.60;;;;;;5135705;27;20038;-73
2023/06/20 06:36:45;;;;;;;8.10;6.80;;;35.10;43.30;;;;;;5135106;27;20031;-73
2023/06/20 06:39:12;;;;;;;14.23;6.65;;;35.40;42.60;;;;;;5135604;27;20027;-73
2023/06/20 06:41:38;;;;;;;8.32;6.93;;;35.70;42.40;;;;;;5134938;27;20482;-73
2023/06/20 06:44:04;;;;;;;7.68;5.97;;;35.90;42.30;;;;;;5135060;27;20528;-73
2023/06/20 06:46:29;;;;;;;9.07;6.57;;;35.90;42.30;;;;;;5114031;28;20052;-72
2023/06/20 06:48:56;;;;;;;9.30;6.75;;;36.20;41.70;;;;;;5114442;28;20541;-73
2023/06/20 06:51:22;;;;;;;7.35;6.10;;;36.20;41.30;;;;;;5114761;28;20027;-73
2023/06/20 06:53:47;;;;;;;6.32;5.57;;;36.10;41.50;;;;;;5114045;28;20370;-73
2023/06/20 06:56:13;;;;;;;10.63;6.57;;;36.20;41.30;;;;;;5114399;28;20048;-72
2023/06/20 06:58:38;;;;;;;11.40;6.32;;;36.30;41.10;;;;;;5113904;28;20106;-72
2023/06/20 07:01:04;;;;;;;8.93;7.18;;;36.20;41.20;;;;;;5114230;28;20031;-72
2023/06/20 07:03:31;;;;;;;8.82;6.72;;;36.00;41.30;;;;;;5128043;27;20035;-72
2023/06/20 07:05:56;;;;;;;8.82;6.80;;;35.80;41.80;;;;;;5134533;27;20091;-73
2023/06/20 07:08:22;;;;;;;11.05;6.70;;;35.50;42.20;;;;;;5135526;27;20019;-73
2023/06/20 07:10:50;;;;;;;9.52;6.55;;;35.30;42.50;;;;;;5134916;27;20023;-72
2023/06/20 07:13:16;;;;;;;8.93;6.95;;;35.00;43.30;;;;;;5116566;27;20460;-72
2023/06/20 07:15:41;;;;;;;11.43;6.90;;;34.80;43.40;;;;;;5134896;27;20034;-72
2023/06/20 07:18:07;;;;;;;13.30;6.82;;;34.90;44.00;;;;;;5135082;27;20072;-72
2023/06/20 07:20:33;;;;;;;10.82;6.53;;;35.00;44.30;;;;;;5134607;27;20475;-72
2023/06/20 07:22:58;;;;;;;8.38;6.18;;;35.00;43.90;;;;;;5135047;27;20052;-72
2023/06/20 07:25:24;;;;;;;8.35;6.57;;;35.00;43.80;;;;;;5134719;27;20058;-73
2023/06/20 07:27:50;;;;;;;7.07;6.05;;;35.00;43.60;;;;;;5134134;27;20396;-74
2023/06/20 07:30:15;;;;;;;7.95;6.72;;;35.00;43.60;;;;;;5134840;27;20023;-73
2023/06/20 07:32:41;;;;;;;10.27;6.80;;;35.00;43.60;;;;;;5134103;27;20034;-73
2023/06/20 07:35:07;;;;;;;8.07;6.55;;;34.60;44.30;;;;;;5134482;27;20380;-73
2023/06/20 07:37:32;;;;;;;9.18;7.45;;;34.70;44.30;;;;;;5133933;27;20110;-73
2023/06/20 07:39:58;;;;;;;7.85;6.25;;;34.80;44.30;;;;;;5116312;27;20023;-73
2023/06/20 07:42:24;;;;;;;11.73;6.75;;;34.90;44.20;;;;;;5116167;27;20030;-73
2023/06/20 07:44:49;;;;;;;12.10;7.13;;;34.60;44.30;;;;;;5115742;27;20498;-73
2023/06/20 07:47:15;;;;;;;7.80;6.55;;;34.40;45.00;;;;;;5134708;27;20499;-73
2023/06/20 07:49:41;;;;;;;11.02;7.18;;;34.60;45.80;;;;;;5129991;27;20383;-73
2023/06/20 07:52:06;;;;;;;9.95;5.85;;;34.80;44.30;;;;;;5113872;28;20156;-73
2023/06/20 07:54:32;;;;;;;7.70;6.50;;;34.90;44.60;;;;;;5113323;28;20059;-73
2023/06/20 07:56:58;;;;;;;8.07;6.05;;;35.00;44.60;;;;;;5095671;28;20517;-73
2023/06/20 07:59:23;;;;;;;7.88;6.22;;;35.30;44.70;;;;;;5095638;28;20059;-73
2023/06/20 08:01:49;;;;;;;8.02;6.22;;;35.20;44.70;;;;;;5113312;28;20499;-73
2023/06/20 08:04:14;;;;;;;8.80;6.63;;;35.30;44.10;;;;;;5113278;28;20084;-73
2023/06/20 08:06:40;;;;;;;12.57;6.53;;;35.20;44.10;;;;;;5112989;28;20031;-73
2023/06/20 08:09:05;;;;;;;12.90;7.03;;;35.30;44.60;;;;;;5116319;27;20023;-72
2023/06/20 08:11:33;;;;;;;20.17;6.65;;;35.00;43.10;;;;;;5113197;28;20460;-73
2023/06/20 08:13:58;;;;;;;8.73;6.63;;;34.60;44.00;;;;;;5095295;28;20110;-73
2023/06/20 08:16:24;;;;;;;8.85;6.57;;;34.40;44.50;;;;;;5113448;28;20448;-72
2023/06/20 08:18:50;;;;;;;7.22;6.50;;;34.30;45.40;;;;;;5112564;28;20689;-73
2023/06/20 08:21:15;;;;;;;10.95;6.45;;;34.20;45.50;;;;;;5113264;28;20028;-72
2023/06/20 08:23:41;;;;;;;9.18;7.05;;;34.20;45.30;;;;;;5112939;28;20106;-73
2023/06/20 08:26:07;;;;;;;8.75;6.30;;;34.00;46.00;;;;;;5113306;28;20031;-73
2023/06/20 08:28:32;;;;;;;15.68;6.85;;;33.90;46.20;;;;;;5094482;28;20020;-73
2023/06/20 08:30:58;;;;;;;8.77;6.28;;;33.70;46.40;;;;;;5113112;28;20069;-72
2023/06/20 08:33:23;;;;;;;9.05;6.13;;;33.70;46.40;;;;;;5113161;28;20024;-73
2023/06/20 08:35:50;;;;;;;7.57;6.65;;;33.50;46.70;;;;;;5112350;28;20076;-73
2023/06/20 08:38:16;;;;;;;9.73;7.00;;;33.40;47.20;;;;;;5113106;28;20020;-72
2023/06/20 08:40:42;;;;;;;7.72;6.18;;;33.20;47.20;;;;;;5094357;28;20161;-73
2023/06/20 08:43:14;;;;;;;12.38;6.30;;;32.90;47.10;;;;;;5113175;28;20032;-73
2023/06/20 08:45:40;;;;;;;9.75;6.80;;;32.80;48.20;;;;;;5112193;28;20074;-73
2023/06/20 08:48:05;;;;;;;8.85;6.90;;;32.60;48.00;;;;;;5113058;28;20031;-73
2023/06/20 08:50:32;;;;;;;10.32;7.03;;;32.40;48.40;;;;;;5113093;28;20047;-72
2023/06/20 08:53:00;;;;;;;9.57;6.57;;;32.30;49.40;;;;;;5112722;28;20035;-73
2023/06/20 08:55:28;;;;;;;12.23;7.00;;;32.10;50.10;;;;;;5113058;28;20027;-73
2023/06/20 08:57:53;;;;;;;9.85;6.90;;;32.00;50.40;;;;;;5112497;28;20071;-73
2023/06/20 09:00:23;;;;;;;7.38;6.68;;;31.90;50.80;;;;;;5112655;28;20058;-73
2023/06/20 09:02:54;;;;;;;7.97;6.30;;;31.80;51.00;;;;;;5112531;28;20055;-73
2023/06/20 09:05:20;;;;;;;10.18;6.82;;;31.70;50.00;;;;;;5094874;28;20425;-72
2023/06/20 09:07:47;;;;;;;9.45;6.70;;;31.50;50.00;;;;;;5112483;28;20028;-73
2023/06/20 09:10:17;;;;;;;7.75;6.55;;;31.40;50.00;;;;;;5112763;28;20069;-72
2023/06/20 09:12:48;;;;;;;8.30;6.63;;;31.30;50.60;;;;;;5123725;28;20029;-72
2023/06/20 09:15:22;;;;;;;9.60;7.35;;;31.20;50.90;;;;;;5133238;28;20035;-72
2023/06/20 09:17:55;;;;;;;13.75;6.80;;;31.10;52.00;;;;;;5132802;28;20091;-73
2023/06/20 09:20:26;;;;;;;12.45;6.72;;;31.10;52.10;;;;;;5115066;28;20465;-72
2023/06/20 09:22:52;;;;;;;9.98;6.68;;;31.20;51.80;;;;;;5132795;28;20042;-73
2023/06/20 09:25:24;;;;;;;8.65;6.72;;;31.10;52.70;;;;;;5133310;28;20387;-72
2023/06/20 09:27:50;;;;;;;13.23;6.80;;;31.20;52.80;;;;;;5132925;28;20038;-72
2023/06/20 09:30:16;;;;;;;8.80;6.75;;;31.30;52.60;;;;;;5133276;27;20047;-73
2023/06/20 09:32:42;;;;;;;12.05;6.40;;;31.30;52.90;;;;;;5136101;27;20062;-73
2023/06/20 09:35:10;;;;;;;8.63;6.35;;;31.30;52.70;;;;;;5137432;27;20023;-72
2023/06/20 09:37:38;;;;;;;7.60;6.00;;;31.30;50.30;;;;;;5137059;27;20035;-73
2023/06/20 09:40:12;;;;;;;12.77;5.90;;;31.20;48.50;;;;;;5137140;27;20349;-73
2023/06/20 09:42:39;;;;;;;7.03;5.82;;;31.20;47.50;;;;;;5136585;27;20152;-73
2023/06/20 09:45:05;;;;;;;10.18;6.28;;;31.10;48.10;;;;;;5137071;27;20031;-73
2023/06/20 09:47:31;;;;;;;9.02;6.43;;;31.10;48.40;;;;;;5136854;27;20031;-73
2023/06/20 09:49:57;;;;;;;13.40;6.13;;;31.10;49.10;;;;;;5136312;27;20260;-73
2023/06/20 09:52:31;;;;;;;11.80;6.80;;;31.10;48.90;;;;;;5136577;27;20033;-72
2023/06/20 09:55:00;;;;;;;9.43;6.20;;;31.10;49.70;;;;;;5136353;27;20106;-72
2023/06/20 09:57:51;;;;;;;10.07;6.32;;;31.10;50.10;;;;;;5118285;27;20036;-73
2023/06/20 10:00:17;;;;;;;10.60;6.13;;;31.10;49.60;;;;;;5107538;27;20093;-73
2023/06/20 10:02:48;;;;;;;8.98;6.55;;;31.10;49.40;;;;;;5115435;28;20031;-73
2023/06/20 10:05:18;;;;;;;13.35;6.40;;;31.10;49.60;;;;;;5097519;28;20040;-73
2023/06/20 10:07:45;;;;;;;7.60;6.47;;;31.10;49.70;;;;;;5115413;28;20088;-73
2023/06/20 10:10:13;;;;;;;10.48;6.22;;;31.20;49.40;;;;;;5115990;28;20073;-73
2023/06/20 10:12:40;;;;;;;8.77;6.43;;;31.10;49.00;;;;;;5115559;28;20016;-73
2023/06/20 10:15:07;;;;;;;9.18;7.00;;;31.10;49.00;;;;;;5115527;28;20024;-73
2023/06/20 10:17:38;;;;;;;6.57;5.97;;;31.10;49.10;;;;;;5115282;28;20107;-72
2023/06/20 10:20:08;;;;;;;8.50;6.20;;;31.10;49.60;;;;;;5115899;28;20468;-73
2023/06/20 10:22:35;;;;;;;7.87;6.20;;;31.10;49.60;;;;;;5115401;28;20023;-72
2023/06/20 10:25:11;;;;;;;7.63;6.25;;;31.20;49.90;;;;;;5115176;28;20027;-72
2023/06/20 10:27:38;;;;;;;7.63;6.78;;;31.20;48.90;;;;;;5115381;28;20031;-73
2023/06/20 10:30:06;;;;;;;10.32;6.70;;;31.20;49.70;;;;;;5114676;28;20370;-73
2023/06/20 10:32:31;;;;;;;7.20;6.25;;;31.30;49.60;;;;;;5115382;28;20088;-71
2023/06/20 10:35:04;;;;;;;7.10;5.97;;;31.30;49.80;;;;;;5114637;28;20019;-73
2023/06/20 10:37:30;;;;;;;10.32;6.07;;;31.40;50.20;;;;;;5115259;28;20039;-73
2023/06/20 10:39:57;;;;;;;7.43;6.60;;;31.40;50.10;;;;;;5114568;28;20115;-73
2023/06/20 10:42:36;;;;;;;6.70;5.97;;;31.40;50.20;;;;;;5114809;28;20368;-73
2023/06/20 10:45:20;;;;;;;7.68;6.85;;;31.50;50.10;;;;;;5114450;28;20118;-72
2023/06/20 10:47:49;;;;;;;7.30;6.60;;;31.50;50.20;;;;;;5114718;28;20106;-73
2023/06/20 10:50:15;;;;;;;8.23;7.38;;;31.50;49.80;;;;;;5114890;28;20452;-73
2023/06/20 10:52:41;;;;;;;8.48;6.80;;;31.50;50.20;;;;;;5096677;28;20035;-73
2023/06/20 10:55:15;;;;;;;9.48;7.38;;;31.60;49.80;;;;;;5114675;28;20023;-73
2023/06/20 10:57:47;;;;;;;10.32;6.90;;;31.60;50.20;;;;;;5114481;28;20165;-73
2023/06/20 11:00:18;;;;;;;9.52;6.45;;;31.70;50.40;;;;;;5114554;28;20414;-73
2023/06/20 11:02:49;;;;;;;8.85;6.60;;;31.80;51.00;;;;;;5096042;28;20112;-74
2023/06/20 11:05:15;;;;;;;8.15;6.38;;;31.80;50.20;;;;;;5118262;27;20057;-72
2023/06/20 11:07:51;;;;;;;8.52;6.45;;;31.90;49.90;;;;;;5135255;27;20035;-73
2023/06/20 11:10:20;;;;;;;9.43;6.75;;;31.90;49.60;;;;;;5135298;27;20020;-73
2023/06/20 11:12:45;;;;;;;7.22;6.40;;;32.00;49.60;;;;;;5134668;27;20348;-73
2023/06/20 11:15:24;;;;;;;7.07;6.38;;;31.90;49.50;;;;;;5116680;27;20027;-73
2023/06/20 11:17:50;;;;;;;9.07;6.90;;;31.90;49.90;;;;;;5134309;27;20081;-73
2023/06/20 11:20:17;;;;;;;8.13;7.25;;;31.90;50.00;;;;;;5135028;27;20023;-73
2023/06/20 11:22:43;;;;;;;9.98;6.43;;;31.90;50.30;;;;;;5116745;27;20110;-73
2023/06/20 11:25:09;;;;;;;10.65;7.00;;;31.90;50.60;;;;;;5134415;27;20019;-72
2023/06/20 11:27:36;;;;;;;7.75;6.75;;;31.90;50.00;;;;;;5134774;27;20027;-73
2023/06/20 11:30:01;;;;;;;7.65;6.25;;;31.90;50.60;;;;;;5134510;27;20118;-72
2023/06/20 11:32:27;;;;;;;7.85;6.00;;;32.00;50.30;;;;;;5134978;27;20455;-73
2023/06/20 11:34:53;;;;;;;9.48;6.85;;;32.00;50.90;;;;;;5134098;27;20023;-73
2023/06/20 11:37:19;;;;;;;6.95;6.25;;;32.00;49.80;;;;;;5134640;27;20031;-73
2023/06/20 11:39:45;;;;;;;9.88;6.90;;;32.00;50.10;;;;;;5116098;27;20034;-74
2023/06/20 11:42:17;;;;;;;8.50;6.35;;;32.00;50.20;;;;;;5134830;27;20027;-72
2023/06/20 11:44:44;;;;;;;7.95;6.25;;;32.10;50.10;;;;;;5134360;27;20544;-72
2023/06/20 11:47:10;;;;;;;7.28;6.05;;;32.00;50.00;;;;;;5133779;27;20043;-71
2023/06/20 11:49:38;;;;;;;7.80;6.65;;;32.00;49.80;;;;;;5134042;27;20106;-72
2023/06/20 11:52:05;;;;;;;6.82;6.00;;;32.00;49.40;;;;;;5133964;27;20027;-72
2023/06/20 11:54:46;;;;;;;8.13;6.43;;;31.90;49.70;;;;;;5130321;27;20038;-72
2023/06/20 11:57:28;;;;;;;7.25;6.50;;;31.80;50.00;;;;;;5133918;27;20391;-72
2023/06/20 12:00:14;;;;;;;6.93;6.22;;;31.60;50.10;;;;;;5134021;27;20028;-73
2023/06/20 12:02:40;;;;;;;7.93;6.40;;;31.60;50.60;;;;;;5134330;27;20452;-72
2023/06/20 12:05:05;;;;;;;9.00;6.47;;;31.50;50.90;;;;;;5133438;27;20034;-72
2023/06/20 12:07:48;;;;;;;7.55;6.18;;;31.40;50.90;;;;;;5119410;27;20098;-72
2023/06/20 12:10:14;;;;;;;9.38;6.57;;;31.40;50.90;;;;;;5113584;28;20426;-71
2023/06/20 12:12:42;;;;;;;7.97;7.18;;;31.30;51.30;;;;;;5113842;28;20032;-71
2023/06/20 12:15:10;;;;;;;9.68;7.43;;;31.40;51.80;;;;;;5112953;28;20028;-72
2023/06/20 12:17:35;;;;;;;9.52;6.55;;;31.20;51.70;;;;;;5113420;28;20098;-72
2023/06/20 12:20:01;;;;;;;10.07;6.90;;;31.20;51.90;;;;;;5094772;28;20024;-72
2023/06/20 12:22:28;;;;;;;7.22;6.35;;;31.10;52.10;;;;;;5113242;28;20027;-72
2023/06/20 12:24:54;;;;;;;11.30;7.05;;;31.10;52.30;;;;;;5094720;28;20028;-72
2023/06/20 12:27:20;;;;;;;9.27;7.20;;;31.10;53.10;;;;;;5113434;28;20089;-72
2023/06/20 12:29:46;;;;;;;11.57;6.70;;;31.00;53.10;;;;;;5113339;28;20027;-72
2023/06/20 12:32:11;;;;;;;9.02;7.18;;;31.10;53.30;;;;;;5112770;28;20043;-72
2023/06/20 12:34:37;;;;;;;7.70;6.22;;;31.00;53.60;;;;;;5112930;28;20031;-72
2023/06/20 12:37:03;;;;;;;8.32;6.78;;;31.00;53.20;;;;;;5112516;28;20118;-73
2023/06/20 12:39:28;;;;;;;7.80;7.03;;;31.00;53.20;;;;;;5095030;28;20110;-72